Latest Weather Observations for Dum In Mirrie

IDD60801

Issued at 8:01 pm CST Sunday 19 April 2015 (issued every 30 minutes, with the page automatically refreshed every 10 minutes)

About weather observations | Map of weather stations | Latest weather observations for NT | Other Formats
Station Details ID: 014277 Name: DUM IN MIRRIE AIRSTRIP Lat: -12.63 Lon: 130.37 Height: 3.5 m
Data from the previous 72 hours. | See also: Recent months at Dum In Mirrie
Date/Time
CST
Temp
°C
App
Temp
°C
Dew
Point
Rel
Hum
%
Delta-T
°C
Wind Press
QNH
hPa
Press
MSL
hPa
Rain
since 9 am
mm
Dir
 
Spd
km/h
Gust
km/h
Spd
kts
Gust
kts
19/08:00pm 29.5 34.4 24.6 75 3.4 W 7 13 4 7 1010.8 1010.8 0.0
19/07:30pm 29.5 34.7 24.8 76 3.3 W 6 9 3 5 1010.5 1010.5 0.0
19/07:00pm 29.1 34.4 24.4 76 3.3 W 4 7 2 4 1010.1 1010.1 0.0
19/06:30pm 29.8 35.0 24.2 72 3.9 NW 4 7 2 4 1009.7 1009.7 0.0
19/06:00pm 30.7 35.4 23.9 67 4.7 N 6 11 3 6 1009.2 1009.2 0.0
19/05:30pm 31.1 35.1 23.7 64 5.1 N 9 15 5 8 1009.0 1009.0 0.0
19/05:00pm 31.2 34.6 24.1 66 4.9 N 13 19 7 10 1008.8 1008.8 0.0
19/04:30pm 31.6 34.7 24.2 65 5.2 N 15 20 8 11 1008.6 1008.6 0.0
19/04:00pm 31.8 35.2 23.3 60 5.9 N 11 20 6 11 1008.5 1008.5 0.0
19/03:30pm 32.2 36.3 24.0 62 5.7 N 9 17 5 9 1008.5 1008.5 0.0
19/03:00pm 32.1 36.0 23.6 60 5.9 NNE 9 19 5 10 1008.6 1008.6 0.0
19/02:30pm 33.8 35.8 21.6 49 8.3 E 13 19 7 10 1008.9 1008.9 0.0
19/02:00pm 34.1 37.2 22.8 51 7.8 E 11 22 6 12 1009.2 1009.2 0.0
19/01:30pm 33.4 36.5 22.2 52 7.7 E 9 15 5 8 1009.6 1009.6 0.0
19/01:00pm 32.9 36.6 23.2 56 6.7 E 9 19 5 10 1009.8 1009.8 0.0
19/12:30pm 32.6 36.6 23.8 59 6.1 ENE 9 20 5 11 1010.2 1010.2 0.0
19/12:00pm 32.0 35.2 22.4 57 6.6 ENE 9 15 5 8 1010.7 1010.7 0.0
19/11:30am 31.9 36.2 24.2 63 5.4 E 9 19 5 10 1011.3 1011.3 0.0
19/11:00am 31.1 34.9 24.0 66 4.9 E 11 19 6 10 1011.7 1011.7 0.0
19/10:30am 31.0 34.4 24.1 66 4.8 E 13 20 7 11 1012.1 1012.1 0.0
19/10:00am 30.5 34.6 23.9 68 4.6 ESE 9 17 5 9 1012.3 1012.3 0.0
19/09:30am 30.1 34.9 24.5 72 3.9 ESE 7 11 4 6 1012.4 1012.4 0.0
19/09:00am 29.2 34.0 24.5 76 3.3 SE 7 11 4 6 1012.4 1012.4 0.0
19/08:30am 28.4 34.0 25.4 84 2.1 SE 6 11 3 6 1012.5 1012.5 0.0
19/08:00am 27.4 33.0 25.4 89 1.4 SE 6 9 3 5 1012.3 1012.3 0.0
19/07:30am 26.4 33.2 26.1 98 0.2 ESE 2 4 1 2 1012.0 1012.0 0.0
19/07:00am 25.4 31.2 25.1 98 0.2 ESE 4 6 2 3 1011.5 1011.5 0.0
19/06:30am 25.4 31.2 25.1 98 0.2 ESE 4 6 2 3 1011.2 1011.2 0.0
19/06:00am 25.2 30.8 24.9 98 0.2 ESE 4 6 2 3 1010.9 1010.9 0.0
19/05:30am 25.2 30.7 24.7 97 0.3 ESE 4 6 2 3 1010.8 1010.8 0.0
19/05:00am 24.7 30.0 23.7 94 0.7 E 2 4 1 2 1010.6 1010.6 0.0
19/04:30am 24.8 29.5 23.4 92 1.0 ENE 4 6 2 3 1010.4 1010.4 0.0
19/04:00am 25.5 30.4 23.6 89 1.3 NE 4 6 2 3 1010.4 1010.4 0.0
19/03:30am 25.6 29.7 22.9 85 1.8 NNE 6 9 3 5 1010.8 1010.8 0.0
19/03:00am 25.3 29.5 23.2 88 1.4 NNE 6 11 3 6 1010.6 1010.6 0.0
19/02:30am 26.3 32.1 25.8 97 0.4 E 6 19 3 10 1010.9 1010.9 0.0
19/02:00am 26.5 33.7 26.2 98 0.2 CALM 0 0 0 0 1010.8 1010.8 0.0
19/01:30am 26.4 33.6 26.1 98 0.2 CALM 0 0 0 0 1011.2 1011.2 0.0
19/01:00am 25.7 32.2 25.0 96 0.5 CALM 0 2 0 1 1011.2 1011.2 0.0
19/12:30am 26.1 32.8 25.4 96 0.5 CALM 0 0 0 0 1011.4 1011.4 0.0
19/12:00am 26.1 32.7 25.2 95 0.6 CALM 0 0 0 0 1011.5 1011.5 0.0
 
Date/Time
CST
Temp
°C
App
Temp
°C
Dew
Point
Rel
Hum
%
Delta-T
°C
Wind Press
QNH
hPa
Press
MSL
hPa
Rain
since 9 am
mm
Dir
 
Spd
km/h
Gust
km/h
Spd
kts
Gust
kts
18/11:30pm 26.3 33.0 25.4 95 0.6 CALM 0 0 0 0 1011.6 1011.6 0.0
18/11:00pm 26.4 33.2 25.5 95 0.6 CALM 0 0 0 0 1011.6 1011.6 0.0
18/10:30pm 26.5 33.3 25.5 94 0.7 CALM 0 0 0 0 1011.5 1011.5 0.0
18/10:00pm 26.6 32.9 25.4 93 0.8 NNW 2 4 1 2 1011.4 1011.4 0.0
18/09:30pm 27.0 33.2 25.2 90 1.3 N 2 2 1 1 1011.3 1011.3 0.0
18/09:00pm 27.2 33.4 25.2 89 1.4 NNW 2 4 1 2 1010.9 1010.9 0.0
18/08:30pm 27.2 32.7 24.7 86 1.7 NNW 4 6 2 3 1010.5 1010.5 0.0
18/08:00pm 27.0 32.8 24.5 86 1.7 NNW 2 4 1 2 1010.0 1010.0 0.0
18/07:30pm 27.8 33.5 24.4 82 2.4 NW 2 4 1 2 1010.0 1010.0 0.0
18/07:00pm 28.2 33.4 24.2 79 2.8 NW 4 6 2 3 1009.6 1009.6 0.0
18/06:30pm 28.5 33.3 24.1 77 3.0 W 6 9 3 5 1009.4 1009.4 0.0
18/06:00pm 28.8 34.4 24.8 79 2.8 WNW 4 9 2 5 1009.1 1009.1 0.0
18/05:30pm 29.6 34.8 25.1 77 3.2 NW 7 11 4 6 1008.8 1008.8 0.0
18/05:00pm 28.8 34.1 25.0 80 2.7 NW 6 11 3 6 1008.6 1008.6 0.0
18/04:30pm 29.8 35.1 24.9 75 3.4 NNW 6 11 3 6 1008.1 1008.1 0.0
18/04:00pm 29.4 33.9 24.0 72 3.7 NW 7 11 4 6 1008.1 1008.1 0.0
18/03:30pm 28.8 33.3 23.9 75 3.4 NW 7 11 4 6 1008.5 1008.5 0.0
18/03:00pm 28.0 31.1 23.6 77 3.0 WSW 13 22 7 12 1009.1 1009.1 0.0
18/02:30pm 30.0 34.4 25.1 75 3.5 NNW 11 22 6 12 1009.1 1009.1 0.0
18/02:00pm 30.0 33.9 24.9 74 3.6 N 13 24 7 13 1009.2 1009.2 0.0
18/01:30pm 32.3 36.8 24.6 64 5.4 NE 9 17 5 9 1009.5 1009.5 0.0
18/01:00pm 32.7 37.2 23.9 60 6.1 ENE 7 13 4 7 1010.1 1010.1 0.0
18/12:30pm 32.3 36.1 23.5 59 6.1 NNE 9 19 5 10 1010.6 1010.6 0.0
18/12:00pm 32.0 36.4 23.8 62 5.7 ESE 7 13 4 7 1011.0 1011.0 0.0
18/11:30am 32.1 37.6 24.7 65 5.2 E 4 9 2 5 1011.6 1011.6 0.0
18/11:00am 31.0 35.4 24.4 68 4.6 E 9 15 5 8 1012.1 1012.1 0.0
18/10:30am 30.3 35.1 25.1 73 3.7 E 9 13 5 7 1012.4 1012.4 0.0
18/10:00am 30.3 36.1 25.8 77 3.2 ESE 6 9 3 5 1012.4 1012.4 0.0
18/09:30am 28.9 34.3 25.1 80 2.7 ESE 6 7 3 4 1012.2 1012.2 0.0
18/09:00am 28.7 34.6 25.3 82 2.4 SE 4 7 2 4 1012.0 1012.0 32.6
18/08:30am 27.6 33.0 25.2 87 1.7 SE 6 7 3 4 1011.7 1011.7 32.6
18/08:00am 26.6 33.1 25.7 95 0.6 SE 2 6 1 3 1011.7 1011.7 32.6
18/07:30am 26.6 33.6 26.4 99 0.1 SE 2 4 1 2 1011.5 1011.5 32.6
18/07:00am 25.8 32.6 25.6 99 0.1 CALM 0 2 0 1 1010.9 1010.9 32.6
18/06:30am 25.7 32.4 25.4 98 0.2 CALM 0 0 0 0 1010.5 1010.5 32.6
18/06:00am 25.4 31.9 25.1 98 0.2 CALM 0 0 0 0 1010.2 1010.2 32.6
18/05:30am 25.4 31.9 25.1 98 0.2 CALM 0 0 0 0 1010.1 1010.1 32.6
18/05:00am 25.4 31.8 24.9 97 0.3 CALM 0 0 0 0 1009.9 1009.9 32.6
18/04:30am 25.7 32.3 25.2 97 0.3 CALM 0 0 0 0 1010.0 1010.0 32.6
18/04:00am 25.5 31.7 24.6 95 0.6 CALM 0 2 0 1 1010.0 1010.0 32.6
18/03:30am 25.4 31.2 25.1 98 0.2 WSW 4 7 2 4 1010.2 1010.2 32.6
18/03:00am 25.0 30.5 24.7 98 0.2 SSW 4 6 2 3 1010.3 1010.3 32.6
18/02:30am 24.9 30.7 24.6 98 0.2 SSW 2 6 1 3 1010.4 1010.4 32.6
18/02:00am 24.8 29.5 24.3 97 0.3 WSW 7 13 4 7 1010.2 1010.2 32.4
18/01:30am 25.9 29.2 23.9 89 1.4 E 13 32 7 17 1011.2 1011.2 6.6
18/01:00am 26.7 31.1 23.4 82 2.3 NNW 6 13 3 7 1011.0 1011.0 0.0
18/12:30am 27.4 30.7 23.2 78 2.9 NNW 11 19 6 10 1011.3 1011.3 0.0
18/12:00am 28.9 34.9 25.5 82 2.4 NNW 4 7 2 4 1011.3 1011.3 0.0
 
Date/Time
CST
Temp
°C
App
Temp
°C
Dew
Point
Rel
Hum
%
Delta-T
°C
Wind Press
QNH
hPa
Press
MSL
hPa
Rain
since 9 am
mm
Dir
 
Spd
km/h
Gust
km/h
Spd
kts
Gust
kts
17/11:30pm 28.1 33.2 24.1 79 2.8 NNE 4 6 2 3 1011.5 1011.5 0.0
17/11:00pm 27.6 32.6 23.8 80 2.6 NE 4 6 2 3 1011.4 1011.4 0.0
17/10:30pm 27.2 32.1 23.7 81 2.4 NNE 4 4 2 2 1011.5 1011.5 0.0
17/10:00pm 27.5 32.3 23.5 79 2.7 NE 4 6 2 3 1011.4 1011.4 0.0
17/09:30pm 28.3 33.2 23.7 76 3.2 NE 4 6 2 3 1011.1 1011.1 0.0
17/09:00pm 28.6 34.3 23.7 75 3.4 CALM 0 2 0 1 1011.0 1011.0 0.0
17/08:30pm 29.1 33.4 23.3 71 4.0 NE 6 9 3 5 1010.6 1010.6 0.0
17/08:00pm 29.2 33.6 23.4 71 4.0 NNE 6 11 3 6 1010.0 1010.0 0.0
17/07:30pm 29.2 33.1 23.6 72 3.9 NE 9 13 5 7 1009.4 1009.4 0.0
17/07:00pm 29.4 33.3 23.6 71 4.0 NE 9 15 5 8 1009.1 1009.1 0.0
17/06:30pm 29.7 32.8 22.9 67 4.7 NNE 11 20 6 11 1008.9 1008.9 0.0
17/06:00pm 30.3 33.1 23.0 65 5.0 NNE 13 22 7 12 1008.7 1008.7 0.0
17/05:30pm 30.9 33.0 22.5 61 5.7 NNE 15 24 8 13 1008.4 1008.4 0.0
17/05:00pm 31.1 33.8 23.5 64 5.3 NNE 15 22 8 12 1008.4 1008.4 0.0
17/04:30pm 31.8 34.7 23.9 63 5.5 N 15 24 8 13 1008.2 1008.2 0.0
17/04:00pm 31.7 34.1 23.0 60 6.0 N 15 22 8 12 1008.1 1008.1 0.0
17/03:30pm 31.7 34.2 23.2 60 5.9 N 15 22 8 12 1008.2 1008.2 0.0
17/03:00pm 32.3 34.7 23.0 58 6.4 N 15 22 8 12 1008.6 1008.6 0.0
17/02:30pm 32.7 35.8 23.6 58 6.3 N 13 22 7 12 1009.0 1009.0 0.0
17/02:00pm 32.6 36.0 23.3 58 6.4 N 11 17 6 9 1009.5 1009.5 0.0
17/01:30pm 33.0 36.4 22.7 54 7.1 E 9 15 5 8 1010.1 1010.1 0.0
17/01:00pm 32.6 35.1 21.8 53 7.3 NE 11 19 6 10 1010.5 1010.5 0.0
17/12:30pm 32.5 35.8 22.6 56 6.8 ENE 9 15 5 8 1011.1 1011.1 0.0
17/12:00pm 32.3 34.6 22.1 55 6.9 ENE 13 22 7 12 1011.6 1011.6 0.0
17/11:30am 31.7 34.4 22.1 56 6.5 E 11 20 6 11 1012.0 1012.0 0.0
17/11:00am 31.2 33.9 22.8 61 5.8 ENE 13 20 7 11 1012.4 1012.4 0.0
17/10:30am 30.8 34.3 23.5 65 5.0 E 11 20 6 11 1012.8 1012.8 0.0
17/10:00am 30.3 33.6 23.2 65 4.9 E 11 19 6 10 1012.9 1012.9 0.0
17/09:30am 28.7 33.3 23.8 75 3.4 ESE 6 9 3 5 1013.0 1013.0 0.0
17/09:00am 28.4 33.2 24.2 78 2.9 ESE 6 11 3 6 1013.1 1013.1 0.0
17/08:30am 27.6 32.7 24.0 81 2.5 SE 4 7 2 4 1012.9 1012.9 0.0
17/08:00am 27.0 32.4 24.5 86 1.7 SE 4 7 2 4 1012.5 1012.5 0.0
17/07:30am 26.3 31.3 23.8 86 1.7 SE 4 6 2 3 1012.3 1012.3 0.0
17/07:00am 26.2 31.7 24.1 88 1.4 SE 2 4 1 2 1011.7 1011.7 0.0
17/06:30am 26.2 31.6 23.9 87 1.6 SSE 2 4 1 2 1011.5 1011.5 0.0
17/06:00am 26.5 31.7 24.2 87 1.6 ESE 4 6 2 3 1011.3 1011.3 0.0
17/05:30am 26.7 31.5 24.2 86 1.7 E 6 7 3 4 1011.1 1011.1 0.0
17/05:00am 26.9 31.7 24.2 85 1.9 ESE 6 9 3 5 1011.1 1011.1 0.0
17/04:30am 27.3 32.2 24.4 84 2.0 ESE 6 9 3 5 1011.0 1011.0 0.0
17/04:00am 27.7 33.0 24.3 82 2.4 E 4 7 2 4 1010.9 1010.9 0.0
17/03:30am 28.2 33.0 24.2 79 2.8 ENE 6 11 3 6 1011.0 1011.0 0.0
17/03:00am 28.1 32.9 24.1 79 2.8 ENE 6 9 3 5 1011.1 1011.1 0.0
17/02:30am 27.9 32.4 23.9 79 2.8 NE 7 9 4 5 1011.5 1011.5 0.0
17/02:00am 27.8 32.8 23.8 79 2.8 ENE 4 7 2 4 1011.7 1011.7 0.0
17/01:30am 28.3 33.0 23.9 77 3.0 E 6 7 3 4 1012.2 1012.2 0.0
17/01:00am 28.5 32.8 23.6 75 3.4 E 7 13 4 7 1012.7 1012.7 0.0
17/12:30am 28.6 32.8 23.5 74 3.5 ENE 7 11 4 6 1012.9 1012.9 0.0
17/12:00am 28.5 32.7 23.4 74 3.5 ENE 7 9 4 5 1013.1 1013.1 0.0
 
Date/Time
CST
Temp
°C
App
Temp
°C
Dew
Point
Rel
Hum
%
Delta-T
°C
Wind Press
QNH
hPa
Press
MSL
hPa
Rain
since 9 am
mm
Dir
 
Spd
km/h
Gust
km/h
Spd
kts
Gust
kts
16/11:30pm 28.6 32.7 23.3 73 3.6 ENE 7 11 4 6 1013.3 1013.3 0.0
16/11:00pm 28.5 32.7 23.2 73 3.6 ENE 6 13 3 7 1013.4 1013.4 0.0
16/10:30pm 28.9 32.6 23.3 72 3.8 ENE 9 15 5 8 1013.5 1013.5 0.0
16/10:00pm 29.0 33.1 23.2 71 4.0 ENE 7 13 4 7 1013.3 1013.3 0.0
16/09:30pm 29.0 33.1 23.2 71 4.0 NE 7 13 4 7 1013.1 1013.1 0.0
16/09:00pm 29.1 33.3 23.1 70 4.1 NE 6 9 3 5 1013.0 1013.0 0.0
16/08:30pm 29.1 32.7 23.1 70 4.1 NE 9 15 5 8 1012.5 1012.5 0.0

Other Formats:

Comma delimited format used in spreadsheet applications
http://www.bom.gov.au/fwo/IDD60801/IDD60801.94116.axf

JavaScript Object Notation format (JSON) in row-major order
http://www.bom.gov.au/fwo/IDD60801/IDD60801.94116.json